KNJK/NJK METAR and TAF weather

Enter ICAO airport designator
Station Type Date Time Source
KNJK METAR 2021/04/13 06:56 UTC NOAA

KNJK 130656Z AUTO 22011KT 10SM CLR 23/01 A2969 RMK AO2 SLP070 T02280006 $


Station Type Date Time Source
KNJK Decoded METAR 2021/04/13 06:56 UTC NOAA

El Centro, Naval Air Facility, CA, United States (KNJK) 32-49-30N 115-39-38W -13M
Apr 13, 2021 - 02:56 AM EDT / 2021.04.13 0656 UTC
Wind: from the SW (220 degrees) at 13 MPH (11 KT):0
Visibility: 10 mile(s):0
Sky conditions: clear
Temperature: 73.0 F (22.8 C)
Dew Point: 33.1 F (0.6 C)
Relative Humidity: 22%
Pressure (altimeter): 29.69 in. Hg (1005 hPa)
ob: KNJK 130656Z AUTO 22011KT 10SM CLR 23/01 A2969 RMK AO2 SLP070 T02280006
cycle: 7

Station Type Date Time Source
KNJK TAF 2021/04/13 07:15 UTC NOAA

TAF KNJK 1307/1407 25009KT 9999 FEW250 520207 QNH2967INS
TEMPO 1307/1312 26015G20KT
FM132100 27020G30KT 9999 SCT250 520009 QNH2965INS
TEMPO 1323/1405 27026G36KT AUTOMATED SENSOR METWATCH 1307 TIL 1313 T16/1313Z T32/1323Z FS30020

Example: see airport list